createdAt,value
2022-09-01T00:00:53.286Z,17.47
2022-09-01T00:05:57.568Z,17.43
2022-09-01T00:11:00.717Z,17.37
2022-09-01T00:16:04.381Z,17.32
2022-09-01T00:21:08.950Z,17.27
2022-09-01T00:26:12.502Z,17.21
2022-09-01T00:31:16.443Z,17.16
2022-09-01T00:36:22.028Z,17.07
2022-09-01T00:41:32.070Z,16.98
2022-09-01T00:46:43.218Z,16.84
2022-09-01T00:51:56.540Z,16.89
2022-09-01T00:57:00.616Z,16.77
2022-09-01T01:02:03.672Z,16.73
2022-09-01T01:07:09.520Z,16.65
2022-09-01T01:12:18.420Z,16.61
2022-09-01T01:17:23.926Z,16.51
2022-09-01T01:22:55.776Z,16.40
2022-09-01T01:28:10.150Z,16.21
2022-09-01T01:33:13.247Z,16.27
2022-09-01T01:38:16.437Z,16.20
2022-09-01T01:43:21.960Z,16.13
2022-09-01T01:48:25.962Z,16.08
2022-09-01T01:53:30.096Z,16.03
2022-09-01T01:58:35.967Z,15.98
2022-09-01T02:03:44.392Z,15.95
2022-09-01T02:08:47.529Z,15.92
2022-09-01T02:13:54.438Z,15.89
2022-09-01T02:18:57.958Z,15.88
2022-09-01T02:24:03.552Z,15.90
2022-09-01T02:29:18.192Z,15.93
2022-09-01T02:34:24.379Z,15.96
2022-09-01T02:39:32.702Z,15.96
2022-09-01T02:44:41.209Z,15.91
2022-09-01T02:49:44.987Z,15.90
2022-09-01T02:54:49.004Z,15.89
2022-09-01T02:59:53.309Z,15.94
2022-09-01T03:04:57.575Z,15.91
2022-09-01T03:10:03.394Z,15.86
2022-09-01T03:15:09.074Z,15.89
2022-09-01T03:20:16.824Z,15.90
2022-09-01T03:25:21.430Z,15.91
2022-09-01T03:30:27.031Z,15.84
2022-09-01T03:35:31.960Z,15.82
2022-09-01T03:40:37.785Z,15.79
2022-09-01T03:45:42.875Z,15.75
2022-09-01T03:50:47.440Z,15.69
2022-09-01T03:55:52.437Z,15.64
2022-09-01T04:01:00.762Z,15.55
2022-09-01T04:06:04.439Z,15.48
2022-09-01T04:11:16.630Z,15.30
2022-09-01T04:16:42.957Z,15.25
2022-09-01T04:21:46.775Z,15.28
2022-09-01T04:26:51.003Z,15.22
2022-09-01T04:32:02.138Z,15.17
2022-09-01T04:37:10.220Z,15.14
2022-09-01T04:42:14.152Z,15.11
2022-09-01T04:47:36.269Z,15.02
2022-09-01T04:52:43.814Z,15.01
2022-09-01T04:57:55.894Z,15.01
2022-09-01T05:03:04.691Z,15.00
2022-09-01T05:08:32.762Z,14.99
2022-09-01T05:13:40.321Z,15.02
2022-09-01T05:18:47.577Z,14.99
2022-09-01T05:23:51.945Z,14.98
2022-09-01T05:28:58.738Z,14.94
2022-09-01T05:34:05.340Z,14.90
2022-09-01T05:39:10.389Z,14.89
2022-09-01T05:44:14.196Z,14.96
2022-09-01T05:49:18.963Z,15.08
2022-09-01T05:54:27.546Z,15.23
2022-09-01T05:59:32.714Z,15.43
2022-09-01T06:04:47.187Z,15.46
2022-09-01T06:09:57.081Z,15.44
2022-09-01T06:15:00.161Z,15.49
2022-09-01T06:20:10.680Z,15.54
2022-09-01T06:25:17.428Z,15.55
2022-09-01T06:30:26.571Z,15.60
2022-09-01T06:35:40.566Z,15.66
2022-09-01T06:40:43.838Z,15.67
2022-09-01T06:45:55.290Z,15.77
2022-09-01T06:51:20.879Z,15.84
2022-09-01T06:56:32.177Z,15.95
2022-09-01T07:01:36.335Z,16.03
2022-09-01T07:12:25.934Z,16.24
2022-09-01T07:17:30.744Z,16.36
2022-09-01T07:22:37.236Z,16.50
2022-09-01T07:27:50.494Z,16.63
2022-09-01T07:32:56.133Z,16.76
2022-09-01T07:38:47.799Z,16.91
2022-09-01T07:43:32.612Z,17.09
2022-09-01T07:49:29.564Z,17.26
2022-09-01T07:54:25.211Z,17.56
2022-09-01T07:59:29.941Z,17.81
2022-09-01T08:04:41.094Z,18.13
2022-09-01T08:09:45.801Z,18.52
2022-09-01T08:15:12.681Z,18.87
2022-09-01T08:20:17.051Z,19.30
2022-09-01T08:25:37.992Z,19.76
2022-09-01T08:30:49.054Z,20.14
2022-09-01T08:35:57.369Z,20.52
2022-09-01T08:41:04.529Z,20.90
2022-09-01T08:46:18.225Z,21.31
2022-09-01T08:51:27.441Z,21.66
2022-09-01T08:56:37.684Z,22.11
2022-09-01T09:01:48.094Z,22.49
2022-09-01T09:07:03.573Z,22.80
2022-09-01T09:12:19.847Z,23.24
2022-09-01T09:17:30.573Z,23.62
2022-09-01T09:22:34.249Z,23.92
2022-09-01T09:27:40.522Z,24.13
2022-09-01T09:33:19.929Z,24.47
2022-09-01T09:38:23.995Z,24.79
2022-09-01T09:43:31.639Z,24.97
2022-09-01T09:48:35.269Z,25.23
2022-09-01T09:53:38.245Z,25.40
2022-09-01T09:58:46.579Z,25.58
2022-09-01T10:03:52.246Z,25.90
2022-09-01T10:08:55.340Z,26.04
2022-09-01T10:14:00.155Z,26.35
2022-09-01T10:19:03.465Z,26.55
2022-09-01T10:24:20.559Z,26.78
2022-09-01T10:29:35.599Z,27.01
2022-09-01T10:34:50.866Z,27.37
2022-09-01T10:40:20.174Z,27.49
2022-09-01T10:45:35.179Z,27.90
2022-09-01T10:50:39.199Z,27.88
2022-09-01T10:55:46.398Z,28.07
2022-09-01T11:01:11.047Z,28.27
2022-09-01T11:12:34.024Z,28.55
2022-09-01T11:17:41.480Z,28.38
2022-09-01T11:22:47.755Z,28.59
2022-09-01T11:28:03.606Z,28.69
2022-09-01T11:33:22.549Z,28.87
2022-09-01T11:38:29.717Z,28.81
2022-09-01T11:43:32.789Z,28.56
2022-09-01T11:48:37.846Z,28.63
2022-09-01T11:53:40.821Z,28.72
2022-09-01T11:58:46.642Z,28.73
2022-09-01T12:03:53.200Z,28.85
2022-09-01T12:08:59.220Z,28.96
2022-09-01T12:14:07.657Z,29.06
2022-09-01T12:19:27.068Z,29.36
2022-09-01T12:24:34.673Z,29.29
2022-09-01T12:29:39.059Z,29.30
2022-09-01T12:34:45.369Z,29.25
2022-09-01T12:39:50.207Z,29.40
2022-09-01T12:44:55.713Z,29.43
2022-09-01T12:50:03.423Z,29.65
2022-09-01T13:00:56.539Z,29.81
2022-09-01T13:06:02.743Z,29.82
2022-09-01T13:11:08.349Z,29.89
2022-09-01T13:16:13.121Z,29.94
2022-09-01T13:21:18.120Z,29.88
2022-09-01T13:26:21.123Z,29.55
2022-09-01T13:31:32.211Z,29.68
2022-09-01T13:36:47.137Z,29.83
2022-09-01T13:41:52.951Z,29.72
2022-09-01T13:46:59.545Z,29.81
2022-09-01T13:52:04.512Z,29.96
2022-09-01T13:57:07.679Z,30.11
2022-09-01T14:02:12.113Z,30.15
2022-09-01T14:07:18.940Z,30.22
2022-09-01T14:12:21.973Z,30.35
2022-09-01T14:17:25.089Z,30.50
2022-09-01T14:22:30.001Z,30.44
2022-09-01T14:27:32.945Z,30.41
2022-09-01T14:32:36.880Z,30.42
2022-09-01T14:37:42.122Z,30.35
2022-09-01T14:42:49.415Z,30.59
2022-09-01T14:47:54.977Z,30.61
2022-09-01T14:53:00.629Z,30.58
2022-09-01T14:58:06.152Z,30.58
2022-09-01T15:03:09.771Z,30.76
2022-09-01T15:08:17.585Z,30.74
2022-09-01T15:13:20.980Z,30.69
2022-09-01T15:18:24.120Z,30.64
2022-09-01T15:23:31.305Z,30.58
2022-09-01T15:28:34.271Z,30.58
2022-09-01T15:33:38.395Z,30.60
2022-09-01T15:38:43.214Z,30.54
2022-09-01T15:43:46.234Z,30.45
2022-09-01T15:48:50.612Z,30.48
2022-09-01T15:53:58.233Z,30.38
2022-09-01T15:59:02.402Z,30.38
2022-09-01T16:04:07.378Z,30.45
2022-09-01T16:09:12.475Z,30.44
2022-09-01T16:14:16.179Z,30.44
2022-09-01T16:19:28.426Z,30.41
2022-09-01T16:24:39.253Z,30.44
2022-09-01T16:29:47.829Z,30.32
2022-09-01T16:34:52.393Z,30.24
2022-09-01T16:40:05.785Z,30.23
2022-09-01T16:45:19.083Z,30.15
2022-09-01T16:50:31.444Z,30.04
2022-09-01T16:55:42.494Z,29.99
2022-09-01T17:00:54.582Z,29.98
2022-09-01T17:06:13.090Z,29.59
2022-09-01T17:11:27.503Z,29.49
2022-09-01T17:16:37.272Z,29.50
2022-09-01T17:21:49.077Z,29.26
2022-09-01T17:26:56.739Z,29.06
2022-09-01T17:32:05.989Z,28.78
2022-09-01T17:37:20.606Z,28.43
2022-09-01T17:42:33.660Z,28.17
2022-09-01T17:47:46.984Z,27.86
2022-09-01T17:53:00.437Z,27.48
2022-09-01T17:58:17.181Z,27.12
2022-09-01T18:03:33.161Z,26.73
2022-09-01T18:08:41.926Z,26.46
2022-09-01T18:13:53.640Z,26.18
2022-09-01T18:19:03.737Z,25.89
2022-09-01T18:24:16.171Z,25.62
2022-09-01T18:29:23.154Z,25.37
2022-09-01T18:34:37.508Z,25.09
2022-09-01T18:39:50.877Z,24.83
2022-09-01T18:45:05.526Z,24.61
2022-09-01T18:50:16.814Z,24.39
2022-09-01T18:55:25.143Z,24.20
2022-09-01T19:00:35.568Z,23.97
2022-09-01T19:06:02.452Z,23.78
2022-09-01T19:11:12.508Z,23.56
2022-09-01T19:16:30.490Z,23.38
2022-09-01T19:21:34.054Z,23.20
2022-09-01T19:26:41.796Z,23.00
2022-09-01T19:31:49.319Z,22.83
2022-09-01T19:36:54.850Z,22.67
2022-09-01T19:42:03.075Z,22.48
2022-09-01T19:47:12.158Z,22.32
2022-09-01T19:52:24.697Z,22.13
2022-09-01T19:57:34.007Z,21.92
2022-09-01T20:02:45.598Z,21.77
2022-09-01T20:07:56.462Z,21.65
2022-09-01T20:13:22.829Z,21.47
2022-09-01T20:18:32.741Z,21.34
2022-09-01T20:23:43.605Z,21.24
2022-09-01T20:28:51.262Z,21.10
2022-09-01T20:34:01.650Z,20.92
2022-09-01T20:39:28.226Z,20.79
2022-09-01T20:44:38.927Z,20.67
2022-09-01T20:49:44.750Z,20.53
2022-09-01T20:54:53.570Z,20.39
2022-09-01T20:59:59.530Z,20.24
2022-09-01T21:05:16.715Z,20.11
2022-09-01T21:10:30.866Z,20.01
2022-09-01T21:15:40.549Z,19.87
2022-09-01T21:20:56.778Z,19.78
2022-09-01T21:26:00.697Z,19.67
2022-09-01T21:31:06.113Z,19.56
2022-09-01T21:36:11.184Z,19.41
2022-09-01T21:41:15.060Z,19.36
2022-09-01T21:46:20.370Z,19.27
2022-09-01T21:51:25.048Z,19.16
2022-09-01T21:56:28.131Z,19.01
2022-09-01T22:01:32.202Z,19.02
2022-09-01T22:06:38.787Z,18.89
2022-09-01T22:11:42.303Z,18.82
2022-09-01T22:16:45.458Z,18.73
2022-09-01T22:21:50.324Z,18.62
2022-09-01T22:26:53.252Z,18.51
2022-09-01T22:31:56.233Z,18.42
2022-09-01T22:37:00.628Z,18.30
2022-09-01T22:42:03.891Z,18.25
2022-09-01T22:47:07.691Z,18.18
2022-09-01T22:52:12.015Z,18.14
2022-09-01T22:57:17.160Z,18.09
2022-09-01T23:02:21.090Z,18.03
2022-09-01T23:07:25.550Z,17.95
2022-09-01T23:12:28.585Z,17.79
2022-09-01T23:17:31.899Z,17.73
2022-09-01T23:22:36.179Z,17.68
2022-09-01T23:27:39.318Z,17.63
2022-09-01T23:32:42.516Z,17.58
2022-09-01T23:37:46.899Z,17.52
2022-09-01T23:42:49.874Z,17.49
2022-09-01T23:47:52.757Z,17.41
2022-09-01T23:52:58.894Z,17.37
2022-09-01T23:58:01.874Z,17.26
